首页
METAR-TAF:

METAR-TAF

机场 :

New Bern, 北卡罗来纳州, 美国

纬度: 35-04-03N, 经度: 077-02-50W, 海拔: 5米

当前天气观测

该预报发布于25分钟前的19:54 UTC
风速10节,风向北转东北
温度 10°C
湿度 62%
气压 1029 hPa
能見度: 16.1公里
阴天层高于12000英尺

METAR: KEWN 141954Z 03010KT 10SM OVC120 10/03 A3039 RMK AO2 SLP289 T01000028

时间: 15:19 (20:19 UTC)

预报

该预报发布于2小时和50分钟前的17:29 UTC
预报有效从14日的 18点(UTC)到 15日的 18点(UTC)
风速11节,风向东北
能見度: 10公里
多云层高于5000英尺
阴天层高于11000英尺
从 15日的 0000点(UTC)
风速10节,风向东北
能見度: 10公里
阴天层高于5000英尺
附近有阵雨
从 15日的 0600点(UTC)
风速11节,风向东北
能見度: 9.7公里
阴天层高于2000英尺
小雨
从 15日的 0900点(UTC)
风速12节,风向东转东北
能見度: 9.7公里
阴天层高于1000英尺

TAF: KEWN 141729Z 1418/1518 04011KT P6SM BKN050 OVC110 FM150000 05010KT P6SM VCSH OVC050 FM150600 05011KT 6SM -RA OVC020 FM150900 06012KT 6SM RA OVC010

超过4000个机场的气象观测和天气预报(METAR&TAF报告)。

可查询的气象台以黄色和红色小点在地图上表示。

将鼠标移到小点上方,可查看气象台名称。

然后点击查看天气观测和预报。

如需切换地图:点击带黑十字的绿色按钮放大地图;点击带横线的绿色按钮缩小地图;或者点击绿色箭头查看邻近地区的地图。


METAR-TAF: